Time;durP1;ratioP1;P1;durP2;ratioP2;P2;SDS_P1;SDS_P2;PMS_P1;PMS_P2;Temp;Humidity;BMP_temperature;BMP_pressure;BME280_temperature;BME280_humidity;BME280_pressure;Samples;Min_cycle;Max_cycle;Signal;HPM_P1;HPM_P2
2022/03/23 00:02:18;;;;;;;3.97;3.67;;;;;;;5.25;66.79;100695.41;5056784;28;20227;-67
2022/03/23 00:04:45;;;;;;;6.43;4.53;;;;;;;5.23;67.04;100706.41;5060347;28;20196;-68
2022/03/23 00:07:12;;;;;;;5.97;4.03;;;;;;;5.28;67.01;100705.63;5065718;28;20215;-68
2022/03/23 00:09:38;;;;;;;6.23;4.13;;;;;;;5.28;66.99;100690.38;5057060;28;20207;-67
2022/03/23 00:12:06;;;;;;;7.00;4.00;;;;;;;5.31;66.70;100704.78;5064259;28;20197;-67
2022/03/23 00:14:34;;;;;;;5.97;4.63;;;;;;;5.32;66.35;100698.88;5062073;28;20232;-68
2022/03/23 00:17:01;;;;;;;5.77;3.73;;;;;;;5.33;65.94;100707.38;5067692;28;20192;-68
2022/03/23 00:19:28;;;;;;;4.10;3.63;;;;;;;5.29;65.74;100712.41;5057476;28;20204;-67
2022/03/23 00:21:55;;;;;;;3.50;3.30;;;;;;;5.11;66.45;100712.16;5066732;28;20206;-67
2022/03/23 00:24:22;;;;;;;3.53;3.10;;;;;;;4.90;66.46;100691.56;5064285;28;20291;-67
2022/03/23 00:26:49;;;;;;;4.63;4.23;;;;;;;4.95;66.90;100710.25;5059339;28;20784;-67
2022/03/23 00:29:16;;;;;;;4.07;3.87;;;;;;;4.91;67.02;100707.69;5064860;28;20296;-67
2022/03/23 00:31:44;;;;;;;3.97;3.63;;;;;;;4.81;67.25;100691.47;5061695;28;20280;-67
2022/03/23 00:34:11;;;;;;;4.27;3.53;;;;;;;4.91;67.33;100705.97;5063686;28;20716;-67
2022/03/23 00:36:38;;;;;;;3.13;2.63;;;;;;;4.81;67.28;100695.69;5063831;28;20192;-67
2022/03/23 00:39:05;;;;;;;6.53;3.97;;;;;;;4.81;67.50;100706.69;5064290;28;20196;-67
2022/03/23 00:41:32;;;;;;;4.53;3.93;;;;;;;4.75;67.78;100701.50;5062248;28;20197;-67
2022/03/23 00:43:59;;;;;;;4.53;4.23;;;;;;;4.66;68.51;100701.38;5062542;28;20664;-67
2022/03/23 00:46:26;;;;;;;5.07;4.67;;;;;;;4.57;68.57;100696.19;5059863;28;20307;-67
2022/03/23 00:48:54;;;;;;;6.33;4.73;;;;;;;4.48;68.56;100685.88;5061217;28;20288;-67
2022/03/23 00:51:21;;;;;;;11.97;5.10;;;;;;;4.43;68.55;100682.41;5058854;28;20283;-67
2022/03/23 00:53:48;;;;;;;5.17;4.67;;;;;;;4.47;69.15;100699.41;5057771;28;20204;-67
2022/03/23 00:56:15;;;;;;;4.37;3.80;;;;;;;4.42;68.93;100690.88;5055156;28;20209;-67
2022/03/23 00:58:42;;;;;;;9.30;4.63;;;;;;;4.42;69.48;100701.03;5066450;28;20220;-67
2022/03/23 01:01:09;;;;;;;4.50;4.10;;;;;;;4.42;69.27;100698.50;5061874;28;20192;-67
2022/03/23 01:03:36;;;;;;;5.67;5.27;;;;;;;4.42;68.88;100690.88;5066130;28;20286;-67
2022/03/23 01:06:04;;;;;;;4.33;4.00;;;;;;;4.30;69.02;100670.41;5067042;28;20295;-67
2022/03/23 01:08:31;;;;;;;4.90;4.03;;;;;;;4.34;68.99;100684.81;5059349;28;20279;-67
2022/03/23 01:10:58;;;;;;;5.30;3.53;;;;;;;4.30;68.80;100686.44;5061792;28;20192;-67
2022/03/23 01:13:25;;;;;;;4.33;3.93;;;;;;;4.17;69.19;100677.78;5056366;28;20207;-67
2022/03/23 01:15:52;;;;;;;6.37;4.17;;;;;;;3.94;69.83;100663.88;5062084;28;20200;-67
2022/03/23 01:18:19;;;;;;;3.97;3.67;;;;;;;3.79;70.87;100681.38;5062803;28;20279;-67
2022/03/23 01:20:45;;;;;;;5.13;3.83;;;;;;;3.70;71.14;100686.28;5062394;28;20201;-67
2022/03/23 01:23:14;;;;;;;5.63;3.60;;;;;;;3.57;71.76;100679.28;5062669;28;20212;-67
2022/03/23 01:25:41;;;;;;;6.20;4.07;;;;;;;3.45;72.73;100679.94;5067655;28;20215;-67
2022/03/23 01:28:08;;;;;;;7.13;3.80;;;;;;;3.16;73.41;100666.69;5055616;28;20660;-67
2022/03/23 01:30:35;;;;;;;5.37;4.03;;;;;;;3.24;73.74;100669.38;5065605;28;20662;-67
2022/03/23 01:33:02;;;;;;;4.30;4.00;;;;;;;3.25;73.82;100670.22;5060573;28;20203;-67
2022/03/23 01:35:29;;;;;;;3.90;3.60;;;;;;;3.26;73.69;100677.88;5058383;28;20195;-67
2022/03/23 01:37:56;;;;;;;3.93;3.70;;;;;;;3.28;73.95;100665.22;5060318;28;20280;-67
2022/03/23 01:40:25;;;;;;;7.43;4.27;;;;;;;3.20;73.60;100661.69;5064269;28;20668;-67
2022/03/23 01:42:52;;;;;;;4.70;4.30;;;;;;;3.22;74.24;100662.56;5062306;28;20279;-67
2022/03/23 01:45:19;;;;;;;4.80;4.40;;;;;;;3.10;75.40;100669.06;5058559;28;20287;-67
2022/03/23 01:47:46;;;;;;;5.53;4.47;;;;;;;3.10;75.52;100676.69;5060824;28;20217;-67
2022/03/23 01:50:13;;;;;;;5.20;4.40;;;;;;;3.10;75.91;100681.75;5060290;28;20660;-67
2022/03/23 01:52:40;;;;;;;7.00;4.00;;;;;;;3.13;75.47;100681.81;5065188;28;20283;-66
2022/03/23 01:55:09;;;;;;;5.33;4.80;;;;;;;3.13;75.34;100684.34;5061558;28;20203;-67
2022/03/23 01:57:40;;;;;;;7.57;4.40;;;;;;;3.20;75.07;100684.50;5065098;28;20220;-67
2022/03/23 02:00:09;;;;;;;7.03;5.40;;;;;;;3.21;74.77;100683.66;5065340;28;20290;-67
2022/03/23 02:02:35;;;;;;;10.03;7.07;;;;;;;3.11;75.36;100675.88;5054376;28;20197;-67
2022/03/23 02:05:02;;;;;;;11.47;6.73;;;;;;;3.07;75.47;100661.44;5069878;28;20203;-67
2022/03/23 02:07:30;;;;;;;10.97;8.67;;;;;;;2.90;76.84;100667.84;5060728;28;20283;-67
2022/03/23 02:09:57;;;;;;;12.53;11.23;;;;;;;2.76;78.37;100678.50;5060414;28;20199;-67
2022/03/23 02:12:25;;;;;;;11.03;9.53;;;;;;;2.55;80.44;100674.66;5060680;28;20295;-67
2022/03/23 02:14:53;;;;;;;16.93;9.90;;;;;;;2.41;82.50;100670.13;5057522;28;20231;-67
2022/03/23 02:17:20;;;;;;;16.33;9.80;;;;;;;2.44;82.58;100680.31;5057397;28;20204;-67
2022/03/23 02:19:47;;;;;;;14.37;9.50;;;;;;;2.50;82.44;100676.25;5055011;28;20676;-65
2022/03/23 02:22:15;;;;;;;17.07;9.87;;;;;;;2.46;83.17;100673.59;5062815;28;20287;-67
2022/03/23 02:24:42;;;;;;;9.47;8.50;;;;;;;2.41;83.32;100670.13;5059378;28;20265;-67
2022/03/23 02:27:10;;;;;;;16.10;8.70;;;;;;;2.53;83.23;100672.91;5062268;28;20763;-67
2022/03/23 02:29:37;;;;;;;16.75;9.10;;;;;;;2.65;82.52;100675.72;5059346;28;20295;-67
2022/03/23 02:32:05;;;;;;;14.93;9.93;;;;;;;2.75;82.38;100677.63;5060669;28;20643;-66
2022/03/23 02:34:32;;;;;;;11.47;9.07;;;;;;;2.81;81.76;100677.75;5062999;28;20197;-67
2022/03/23 02:36:59;;;;;;;15.57;10.83;;;;;;;2.82;81.24;100669.34;5063628;28;20284;-66
2022/03/23 02:39:28;;;;;;;14.13;10.87;;;;;;;2.84;81.66;100682.91;5062068;28;20200;-66
2022/03/23 02:41:56;;;;;;;16.07;11.17;;;;;;;2.86;81.15;100683.78;5061235;28;20295;-66
2022/03/23 02:44:25;;;;;;;10.20;9.13;;;;;;;2.81;81.33;100677.75;5058081;28;21165;-67
2022/03/23 02:46:52;;;;;;;11.73;9.60;;;;;;;2.62;83.42;100671.44;5064793;28;20216;-67
2022/03/23 02:49:20;;;;;;;18.77;9.03;;;;;;;2.48;85.63;100677.03;5062690;28;20203;-67
2022/03/23 02:51:47;;;;;;;9.97;8.00;;;;;;;2.45;86.30;100682.88;5067260;28;20204;-68
2022/03/23 03:02:42;;;;;;;12.50;7.83;;;;;;;2.35;87.93;100680.09;5039666;28;20207;-68
2022/03/23 03:05:12;;;;;;;9.40;7.30;;;;;;;2.31;87.52;100678.31;5042490;28;20197;-67
2022/03/23 03:10:26;;;;;;;9.80;6.93;;;;;;;2.47;86.68;100685.44;5049564;28;20307;-67
2022/03/23 03:12:55;;;;;;;17.57;8.03;;;;;;;2.31;87.13;100653.00;5048627;28;20712;-68
2022/03/23 03:15:23;;;;;;;12.73;9.93;;;;;;;2.40;86.74;100679.38;5044957;28;20197;-68
2022/03/23 03:17:50;;;;;;;10.67;9.63;;;;;;;2.39;86.83;100682.72;5041402;28;20597;-67
2022/03/23 03:20:18;;;;;;;13.63;10.27;;;;;;;2.45;86.13;100682.03;5050293;28;20287;-68
2022/03/23 03:22:46;;;;;;;10.47;9.40;;;;;;;2.47;86.21;100675.31;5045537;28;20260;-68
2022/03/23 03:25:14;;;;;;;12.47;9.93;;;;;;;2.35;85.93;100659.88;5042947;28;20201;-68
2022/03/23 03:27:42;;;;;;;11.30;8.93;;;;;;;2.48;85.65;100685.50;5041619;28;20224;-68
2022/03/23 03:30:12;;;;;;;11.87;9.27;;;;;;;2.52;85.48;100683.88;5044988;28;20237;-68
2022/03/23 03:32:40;;;;;;;14.47;9.43;;;;;;;2.57;84.77;100684.84;5045079;28;20280;-67
2022/03/23 03:35:08;;;;;;;10.20;8.87;;;;;;;2.52;83.93;100673.75;5046847;28;20708;-68
2022/03/23 03:37:36;;;;;;;9.27;7.57;;;;;;;2.37;83.81;100673.41;5042363;28;20196;-68
2022/03/23 03:40:05;;;;;;;9.20;8.30;;;;;;;2.24;83.99;100687.44;5043752;28;20201;-67
2022/03/23 03:42:32;;;;;;;9.00;7.50;;;;;;;2.19;84.37;100680.56;5045834;28;20205;-67
2022/03/23 03:44:59;;;;;;;12.17;7.73;;;;;;;2.19;84.42;100675.50;5049493;28;20236;-68
2022/03/23 03:47:27;;;;;;;11.13;7.43;;;;;;;2.08;84.05;100683.69;5039250;28;20311;-67
2022/03/23 03:49:54;;;;;;;11.23;8.07;;;;;;;2.00;84.43;100682.63;5047427;28;20192;-68
2022/03/23 03:52:21;;;;;;;9.70;7.60;;;;;;;1.99;84.60;100675.88;5044975;28;20206;-68
2022/03/23 03:54:48;;;;;;;7.87;7.13;;;;;;;2.03;84.10;100675.16;5046426;28;20192;-67
2022/03/23 03:57:15;;;;;;;13.30;8.03;;;;;;;1.96;84.10;100665.69;5048180;28;20304;-67
2022/03/23 03:59:42;;;;;;;11.23;8.00;;;;;;;1.90;84.60;100673.13;5042336;28;20204;-67
2022/03/23 04:02:09;;;;;;;21.80;7.97;;;;;;;1.85;84.50;100662.03;5051427;28;20204;-67
2022/03/23 04:04:37;;;;;;;9.87;6.67;;;;;;;1.89;84.45;100673.94;5045415;28;20197;-66
2022/03/23 04:07:05;;;;;;;13.37;7.97;;;;;;;1.72;84.86;100654.09;5039618;28;20213;-67
2022/03/23 04:09:31;;;;;;;9.50;7.60;;;;;;;1.80;84.72;100673.72;5048173;28;20562;-67
2022/03/23 04:11:59;;;;;;;9.23;7.37;;;;;;;1.88;84.47;100689.06;5033747;28;21535;-67
2022/03/23 04:14:25;;;;;;;8.47;7.43;;;;;;;1.95;84.35;100679.16;5044772;28;20292;-68
2022/03/23 04:16:53;;;;;;;11.77;7.53;;;;;;;1.95;83.75;100674.09;5051012;28;20197;-67
2022/03/23 04:19:19;;;;;;;9.27;7.67;;;;;;;2.11;82.90;100680.38;5045945;28;20209;-68
2022/03/23 04:21:48;;;;;;;14.63;7.70;;;;;;;1.94;82.51;100667.31;5040894;28;20201;-67
2022/03/23 04:24:15;;;;;;;10.53;7.30;;;;;;;2.00;82.36;100686.84;5038576;28;20209;-67
2022/03/23 04:26:44;;;;;;;8.90;6.80;;;;;;;1.91;82.75;100692.53;5040986;28;20596;-67
2022/03/23 04:29:11;;;;;;;9.60;7.30;;;;;;;1.86;82.81;100699.16;5045977;28;20204;-68
2022/03/23 04:31:38;;;;;;;8.20;7.37;;;;;;;1.94;82.77;100697.66;5036874;28;20308;-67
2022/03/23 04:34:05;;;;;;;20.03;7.83;;;;;;;1.80;82.70;100678.78;5043628;28;20285;-68
2022/03/23 04:36:32;;;;;;;8.93;8.03;;;;;;;1.90;82.87;100700.09;5037361;28;20243;-67
2022/03/23 04:39:01;;;;;;;9.93;8.07;;;;;;;1.92;82.84;100701.84;5041291;28;20202;-67
2022/03/23 04:41:28;;;;;;;9.13;8.20;;;;;;;1.87;82.95;100690.75;5050008;28;20209;-67
2022/03/23 04:43:55;;;;;;;9.20;7.33;;;;;;;1.85;82.95;100697.44;5049662;28;20201;-67
2022/03/23 04:46:22;;;;;;;11.77;8.77;;;;;;;1.73;83.20;100669.31;5043775;28;20303;-67
2022/03/23 04:48:48;;;;;;;8.87;7.87;;;;;;;1.83;83.55;100681.38;5050598;28;20208;-67
2022/03/23 04:51:15;;;;;;;13.93;8.57;;;;;;;1.73;84.14;100692.06;5042016;28;20196;-67
2022/03/23 04:53:42;;;;;;;18.17;7.17;;;;;;;1.60;85.35;100700.16;5043385;28;20201;-67
2022/03/23 04:56:11;;;;;;;9.93;7.53;;;;;;;1.48;86.36;100689.72;5034989;28;20235;-67
2022/03/23 04:58:38;;;;;;;8.13;6.73;;;;;;;1.44;86.59;100677.81;5060170;28;20786;-68
2022/03/23 05:01:05;;;;;;;11.07;6.33;;;;;;;1.46;86.93;100696.38;5065291;28;20196;-67
2022/03/23 05:03:32;;;;;;;6.80;5.63;;;;;;;1.44;86.94;100688.78;5061327;28;20569;-67
2022/03/23 05:05:59;;;;;;;6.77;6.20;;;;;;;1.43;86.70;100676.94;5064871;28;20204;-67
2022/03/23 05:08:26;;;;;;;7.53;6.37;;;;;;;1.49;86.54;100697.31;5060483;28;20270;-67
2022/03/23 05:10:53;;;;;;;25.67;5.70;;;;;;;1.57;86.56;100700.06;5061891;28;20192;-67
2022/03/23 05:13:21;;;;;;;10.07;6.17;;;;;;;1.57;86.95;100700.06;5064409;28;20204;-67
2022/03/23 05:15:48;;;;;;;8.03;6.13;;;;;;;1.56;87.03;100688.22;5060939;28;20681;-67
2022/03/23 05:18:15;;;;;;;6.57;6.00;;;;;;;1.63;86.96;100695.16;5064337;28;20235;-66
2022/03/23 05:20:42;;;;;;;17.43;6.07;;;;;;;1.78;87.20;100704.84;5062992;28;20204;-66
2022/03/23 05:23:09;;;;;;;7.03;6.53;;;;;;;1.95;87.23;100695.97;5067636;28;20200;-66
2022/03/23 05:25:36;;;;;;;9.97;6.50;;;;;;;2.07;86.61;100684.50;5060777;28;20647;-67
2022/03/23 05:28:03;;;;;;;8.73;6.90;;;;;;;2.38;85.59;100696.22;5060452;28;20755;-66
2022/03/23 05:30:32;;;;;;;9.00;6.50;;;;;;;2.56;84.32;100680.59;5061100;28;20580;-66
2022/03/23 05:32:59;;;;;;;18.37;7.70;;;;;;;2.82;83.44;100693.81;5060994;28;20211;-67
2022/03/23 05:35:26;;;;;;;8.43;6.73;;;;;;;2.99;82.28;100693.34;5063835;28;20281;-66
2022/03/23 05:37:53;;;;;;;10.00;6.43;;;;;;;3.12;81.72;100690.25;5056752;28;20223;-66
2022/03/23 05:40:21;;;;;;;14.27;7.23;;;;;;;3.42;80.84;100704.34;5062378;28;20287;-67
2022/03/23 05:42:48;;;;;;;10.47;6.80;;;;;;;3.58;80.12;100711.44;5065155;28;20266;-67
2022/03/23 05:45:16;;;;;;;9.03;7.57;;;;;;;3.62;78.95;100701.34;5065154;28;20200;-67
2022/03/23 05:47:45;;;;;;;13.57;6.63;;;;;;;3.79;78.25;100706.75;5059926;28;20213;-67
2022/03/23 05:50:12;;;;;;;7.50;6.60;;;;;;;4.01;78.81;100708.81;5060473;28;20219;-67
2022/03/23 05:52:40;;;;;;;7.13;6.53;;;;;;;4.26;78.47;100711.78;5058426;28;20197;-67
2022/03/23 05:55:09;;;;;;;9.97;6.40;;;;;;;4.52;77.75;100715.59;5058267;28;20258;-67
2022/03/23 05:57:37;;;;;;;6.23;5.50;;;;;;;4.69;75.64;100716.66;5062278;28;20221;-67
2022/03/23 06:00:05;;;;;;;13.57;5.50;;;;;;;4.87;74.38;100706.78;5061748;28;20615;-67
2022/03/23 06:02:32;;;;;;;10.53;5.03;;;;;;;5.08;76.02;100712.13;5057945;28;20689;-67
2022/03/23 06:05:00;;;;;;;6.67;5.50;;;;;;;5.27;75.80;100698.81;5059177;28;20197;-68
2022/03/23 06:07:27;;;;;;;6.33;5.70;;;;;;;5.64;73.92;100722.97;5062554;28;20247;-68
2022/03/23 06:09:54;;;;;;;7.97;6.17;;;;;;;5.82;73.21;100712.97;5055511;28;20279;-67
2022/03/23 06:12:21;;;;;;;8.47;5.13;;;;;;;6.12;72.10;100716.69;5054465;28;20747;-67
2022/03/23 06:14:48;;;;;;;5.17;4.77;;;;;;;6.27;71.22;100715.13;5060026;28;20204;-68
2022/03/23 06:17:15;;;;;;;6.37;5.87;;;;;;;6.51;71.41;100713.59;5065165;28;20652;-67
2022/03/23 06:19:42;;;;;;;6.33;5.23;;;;;;;6.71;69.61;100712.06;5063906;28;20204;-71
2022/03/23 06:22:11;;;;;;;7.53;6.10;;;;;;;6.88;68.80;100707.91;5070160;28;20739;-70
2022/03/23 06:24:38;;;;;;;8.27;5.93;;;;;;;7.09;69.51;100713.13;5061429;28;20208;-70
2022/03/23 06:27:05;;;;;;;5.27;4.87;;;;;;;7.23;69.34;100708.94;5069353;28;20767;-70
2022/03/23 06:29:32;;;;;;;7.87;5.37;;;;;;;7.42;67.59;100709.88;5070311;28;20206;-70
2022/03/23 06:31:59;;;;;;;5.50;5.00;;;;;;;7.62;69.00;100709.91;5066579;28;20286;-69
2022/03/23 06:34:25;;;;;;;5.70;5.20;;;;;;;7.95;65.55;100707.41;5068556;28;20199;-69
2022/03/23 06:36:52;;;;;;;6.07;5.50;;;;;;;8.18;63.19;100705.75;5060334;28;20203;-69
2022/03/23 06:39:21;;;;;;;9.80;5.20;;;;;;;8.31;63.14;100702.38;5058820;28;20298;-69
2022/03/23 06:41:48;;;;;;;10.53;6.80;;;;;;;8.41;61.99;100704.06;5052484;28;20295;-69
2022/03/23 06:44:15;;;;;;;6.57;6.07;;;;;;;8.51;63.03;100714.28;5060047;28;20218;-70
2022/03/23 06:46:43;;;;;;;6.67;5.80;;;;;;;8.84;63.60;100714.22;5061208;28;20227;-67
2022/03/23 06:49:10;;;;;;;26.03;7.37;;;;;;;8.96;61.61;100709.09;5065834;28;20306;-67
2022/03/23 06:51:37;;;;;;;7.17;6.47;;;;;;;9.13;59.31;100701.38;5065206;28;20605;-68
2022/03/23 06:54:04;;;;;;;7.10;5.77;;;;;;;9.34;58.77;100707.25;5062121;28;20648;-66
2022/03/23 06:56:32;;;;;;;7.87;6.27;;;;;;;9.41;58.64;100706.34;5067363;28;20200;-67
2022/03/23 06:58:59;;;;;;;9.40;6.33;;;;;;;9.64;58.29;100705.38;5068201;28;20227;-67
2022/03/23 07:01:26;;;;;;;9.40;6.03;;;;;;;9.83;55.31;100706.97;5058666;28;20200;-67
2022/03/23 07:03:53;;;;;;;9.37;5.40;;;;;;;10.04;54.65;100706.84;5062358;28;20211;-67
2022/03/23 07:06:20;;;;;;;6.20;5.43;;;;;;;10.21;53.15;100696.50;5064740;28;20307;-66
2022/03/23 07:11:41;;;;;;;7.17;4.80;;;;;;;10.64;50.88;100695.25;5038447;28;20676;-68
2022/03/23 07:14:08;;;;;;;4.67;4.27;;;;;;;10.80;50.09;100699.34;5062268;28;20728;-68
2022/03/23 07:16:35;;;;;;;3.70;3.50;;;;;;;10.99;50.74;100705.13;5063600;28;20283;-68
2022/03/23 07:19:02;;;;;;;3.80;2.87;;;;;;;11.12;47.13;100706.69;5070500;28;20563;-70
2022/03/23 07:21:29;;;;;;;3.57;3.27;;;;;;;11.25;47.72;100705.69;5071247;28;20204;-70
2022/03/23 07:23:55;;;;;;;17.53;3.33;;;;;;;11.33;46.13;100703.03;5062154;28;20606;-71
2022/03/23 07:26:23;;;;;;;3.10;2.87;;;;;;;11.43;46.43;100710.63;5068356;28;20310;-71
2022/03/23 07:28:51;;;;;;;4.37;2.90;;;;;;;11.50;44.81;100707.06;5059437;28;20600;-68
2022/03/23 07:31:18;;;;;;;4.37;2.97;;;;;;;11.63;44.80;100701.78;5069904;28;20683;-68
2022/03/23 07:33:45;;;;;;;3.23;3.03;;;;;;;11.62;44.85;100695.81;5068200;28;20218;-68
2022/03/23 07:36:12;;;;;;;6.87;3.63;;;;;;;11.72;45.08;100702.53;5068564;28;20580;-68
2022/03/23 07:38:39;;;;;;;7.80;3.30;;;;;;;11.91;45.90;100697.97;5068530;28;20204;-69
2022/03/23 07:41:06;;;;;;;3.17;2.97;;;;;;;12.07;44.07;100699.44;5068705;28;20196;-68
2022/03/23 07:43:33;;;;;;;2.23;2.13;;;;;;;12.06;42.58;100692.59;5062692;28;20206;-68
2022/03/23 07:46:01;;;;;;;21.03;3.10;;;;;;;12.21;43.85;100692.38;5058615;28;20208;-69
2022/03/23 07:48:28;;;;;;;4.63;2.60;;;;;;;12.28;42.32;100696.53;5064511;28;20619;-69
2022/03/23 07:50:55;;;;;;;4.03;2.67;;;;;;;12.36;42.31;100692.13;5068395;28;20266;-69
2022/03/23 07:53:22;;;;;;;4.27;2.97;;;;;;;12.27;40.95;100687.13;5053927;28;20208;-68
2022/03/23 07:55:49;;;;;;;3.77;2.30;;;;;;;12.29;41.25;100685.38;5062253;28;20204;-68
2022/03/23 07:58:16;;;;;;;2.07;1.97;;;;;;;12.35;42.05;100690.41;5049607;28;20247;-68
2022/03/23 08:00:45;;;;;;;6.40;3.10;;;;;;;12.57;42.96;100689.16;5042474;28;20720;-68
2022/03/23 08:03:13;;;;;;;2.77;2.57;;;;;;;12.69;41.78;100685.53;5034587;28;20209;-68
2022/03/23 08:05:42;;;;;;;6.20;3.07;;;;;;;12.61;42.00;100657.38;5047386;28;20303;-68
2022/03/23 08:08:10;;;;;;;2.93;2.73;;;;;;;12.55;40.06;100675.50;5041241;28;20259;-68
2022/03/23 08:10:40;;;;;;;3.63;2.60;;;;;;;12.50;39.77;100667.00;5040273;28;20212;-68
2022/03/23 08:13:08;;;;;;;3.60;3.10;;;;;;;12.85;40.25;100668.09;5047948;28;20201;-68
2022/03/23 08:15:37;;;;;;;6.07;3.37;;;;;;;12.99;40.70;100671.22;5046953;28;20634;-68
2022/03/23 08:18:04;;;;;;;3.47;2.63;;;;;;;13.03;40.67;100660.00;5045209;28;20212;-68
2022/03/23 08:20:39;;;;;;;3.00;2.80;;;;;;;13.18;39.99;100666.59;5042005;28;20569;-68
2022/03/23 08:23:07;;;;;;;5.40;2.47;;;;;;;13.28;39.57;100662.97;5048642;28;20201;-68
2022/03/23 08:25:37;;;;;;;9.93;2.80;;;;;;;13.37;40.29;100665.34;5041929;28;20215;-69
2022/03/23 08:28:05;;;;;;;3.17;2.37;;;;;;;13.44;40.32;100656.59;5045074;28;20220;-68
2022/03/23 08:30:33;;;;;;;2.57;2.30;;;;;;;13.56;37.73;100657.19;5043905;28;20289;-68
2022/03/23 08:33:01;;;;;;;2.60;2.40;;;;;;;13.71;39.57;100650.81;5048951;28;20655;-68
2022/03/23 08:35:28;;;;;;;3.90;2.70;;;;;;;13.85;38.26;100648.78;5042091;28;20656;-69
2022/03/23 08:37:56;;;;;;;4.47;2.50;;;;;;;13.93;37.10;100651.16;5042048;28;20204;-67
2022/03/23 08:40:24;;;;;;;2.70;2.50;;;;;;;14.15;36.91;100657.50;5043995;28;20205;-68
2022/03/23 08:42:51;;;;;;;6.40;2.83;;;;;;;14.04;37.37;100655.19;5046721;28;20300;-68
2022/03/23 08:45:18;;;;;;;2.80;2.43;;;;;;;14.02;37.67;100653.53;5047884;28;20205;-67
2022/03/23 08:47:48;;;;;;;2.70;2.50;;;;;;;13.99;38.40;100651.84;5037188;28;20665;-68
2022/03/23 08:50:16;;;;;;;3.17;2.97;;;;;;;14.06;35.55;100652.53;5043812;28;20205;-68
2022/03/23 08:52:43;;;;;;;3.60;2.83;;;;;;;14.13;35.14;100659.25;5048567;28;20220;-68
2022/03/23 08:55:17;;;;;;;2.93;2.60;;;;;;;14.27;35.38;100659.78;5048356;28;20204;-68
2022/03/23 08:57:44;;;;;;;8.33;2.50;;;;;;;14.34;37.62;100652.75;5049551;28;20252;-68
2022/03/23 09:00:12;;;;;;;3.47;2.33;;;;;;;14.42;34.87;100653.41;5069066;28;20206;-68
2022/03/23 09:02:40;;;;;;;17.23;2.60;;;;;;;14.57;35.71;100643.50;5065695;28;20203;-68
2022/03/23 09:05:10;;;;;;;3.37;2.20;;;;;;;14.72;35.55;100644.84;5064305;28;20569;-68
2022/03/23 09:07:38;;;;;;;2.10;1.90;;;;;;;14.79;34.74;100630.03;5068585;28;20192;-69
2022/03/23 09:10:06;;;;;;;3.87;2.57;;;;;;;14.86;35.66;100647.91;5065628;28;20219;-68
2022/03/23 09:12:36;;;;;;;3.30;2.97;;;;;;;14.79;32.85;100650.69;5067578;28;20207;-68
2022/03/23 09:15:04;;;;;;;2.33;2.20;;;;;;;14.86;36.58;100642.75;5067793;28;20337;-69
2022/03/23 09:17:31;;;;;;;2.30;2.20;;;;;;;15.00;34.93;100644.91;5061444;28;20226;-68
2022/03/23 09:20:00;;;;;;;2.47;2.27;;;;;;;14.78;33.87;100642.09;5068670;28;20226;-69
2022/03/23 09:22:27;;;;;;;4.23;2.33;;;;;;;14.70;33.71;100638.91;5068220;28;20200;-68
2022/03/23 09:24:54;;;;;;;2.53;2.33;;;;;;;14.69;34.05;100639.78;5067325;28;20199;-68
2022/03/23 09:27:21;;;;;;;3.27;2.50;;;;;;;14.95;33.32;100636.47;5068006;28;20211;-68
2022/03/23 09:29:50;;;;;;;4.80;2.57;;;;;;;14.98;33.22;100631.22;5065960;28;20218;-68
2022/03/23 09:32:17;;;;;;;2.83;2.47;;;;;;;14.93;34.67;100627.91;5066786;28;20200;-68
2022/03/23 09:34:45;;;;;;;14.37;2.60;;;;;;;15.05;37.95;100623.25;5064585;28;20207;-68
2022/03/23 09:39:56;;;;;;;2.50;2.20;;;;;;;15.21;33.80;100619.34;5059008;28;20204;-69
2022/03/23 09:42:27;;;;;;;2.60;2.30;;;;;;;15.09;35.70;100617.09;5068104;28;20768;-69
2022/03/23 09:44:56;;;;;;;3.47;2.87;;;;;;;15.36;38.57;100615.44;5067392;28;20204;-69
2022/03/23 09:47:23;;;;;;;3.00;2.20;;;;;;;15.53;35.80;100613.22;5060556;28;20267;-69
2022/03/23 09:49:51;;;;;;;2.53;2.33;;;;;;;15.45;32.19;100614.28;5064251;28;20417;-68
2022/03/23 09:52:18;;;;;;;2.40;2.20;;;;;;;15.25;32.05;100601.97;5056945;28;20201;-68
2022/03/23 09:54:46;;;;;;;3.20;2.90;;;;;;;15.34;33.06;100619.81;5051729;28;20685;-69
2022/03/23 09:57:14;;;;;;;2.53;2.00;;;;;;;15.45;32.82;100612.56;5066593;28;20252;-68
2022/03/23 09:59:42;;;;;;;2.73;2.40;;;;;;;15.49;30.94;100609.03;5058384;28;20198;-69
2022/03/23 10:03:05;;;;;;;2.53;2.13;;;;;;;15.44;31.69;100610.88;5063387;28;20218;-68
2022/03/23 10:06:15;;;;;;;3.53;2.00;;;;;;;15.35;32.22;100608.56;5059793;28;20279;-68
2022/03/23 10:09:36;;;;;;;1.90;1.80;;;;;;;15.23;32.44;100603.78;5053626;28;20231;-68
2022/03/23 10:12:45;;;;;;;3.53;2.30;;;;;;;15.30;31.99;100604.44;5063309;28;20667;-68
2022/03/23 10:16:03;;;;;;;3.60;1.97;;;;;;;15.32;33.48;100584.53;5055698;28;20211;-68
2022/03/23 10:18:51;;;;;;;2.10;2.00;;;;;;;15.39;32.94;100592.06;5060829;28;20196;-69
2022/03/23 10:21:19;;;;;;;2.77;2.37;;;;;;;15.45;31.93;100585.88;5067274;28;20212;-68
2022/03/23 10:24:30;;;;;;;4.93;2.37;;;;;;;15.40;31.10;100586.03;5061337;28;20208;-69
2022/03/23 10:26:58;;;;;;;10.43;3.40;;;;;;;15.58;32.32;100572.53;5062688;28;20204;-68
2022/03/23 10:29:26;;;;;;;5.73;3.60;;;;;;;15.69;31.08;100575.66;5063893;28;22147;-68
2022/03/23 10:32:08;;;;;;;4.53;4.27;;;;;;;15.54;32.03;100568.38;5059793;28;20200;-69
2022/03/23 10:34:47;;;;;;;9.03;7.50;;;;;;;15.55;31.54;100570.06;5061430;28;20245;-69
2022/03/23 10:37:16;;;;;;;3.77;3.47;;;;;;;15.70;32.06;100566.16;5064007;28;20277;-69
2022/03/23 10:39:43;;;;;;;2.60;2.40;;;;;;;15.77;32.33;100561.63;5061144;28;20197;-68
2022/03/23 10:42:15;;;;;;;3.17;2.90;;;;;;;15.69;30.43;100560.13;5052682;28;20201;-69
2022/03/23 10:44:44;;;;;;;2.37;2.27;;;;;;;15.84;34.31;100543.25;5060041;28;20209;-69
2022/03/23 10:47:24;;;;;;;2.60;2.00;;;;;;;16.07;33.56;100543.31;5062517;28;20298;-69
2022/03/23 10:49:53;;;;;;;4.23;2.13;;;;;;;16.23;31.08;100546.22;5063414;28;20241;-69
2022/03/23 10:52:20;;;;;;;3.47;3.17;;;;;;;16.11;30.30;100525.97;5062973;28;20584;-69
2022/03/23 10:54:56;;;;;;;4.73;3.20;;;;;;;16.04;28.74;100540.84;5063810;28;20199;-68
2022/03/23 10:57:46;;;;;;;2.30;2.20;;;;;;;15.94;29.15;100538.63;5062122;28;20757;-69
2022/03/23 11:00:16;;;;;;;3.10;3.00;;;;;;;16.09;31.90;100528.59;5060096;28;20207;-69
2022/03/23 11:02:47;;;;;;;3.27;2.77;;;;;;;16.16;32.54;100534.38;5060533;28;20205;-68
2022/03/23 11:05:31;;;;;;;4.10;1.90;;;;;;;16.38;31.61;100524.97;5056589;28;20203;-69
2022/03/23 11:08:07;;;;;;;2.90;2.70;;;;;;;15.88;28.77;100518.13;5059300;28;20203;-68
2022/03/23 11:16:07;;;;;;;3.80;1.97;;;;;;;15.91;31.42;100505.09;5064361;28;20756;-69
2022/03/23 11:18:34;;;;;;;2.03;1.93;;;;;;;15.80;29.97;100509.81;5061546;28;20258;-69
2022/03/23 11:21:02;;;;;;;2.30;2.20;;;;;;;15.93;31.89;100490.41;5060311;28;20685;-68
2022/03/23 11:23:31;;;;;;;2.60;2.50;;;;;;;16.03;31.77;100496.91;5058352;28;20212;-68
2022/03/23 11:26:01;;;;;;;2.73;2.07;;;;;;;16.07;30.18;100493.31;5066685;28;20576;-69
2022/03/23 11:28:29;;;;;;;2.20;2.10;;;;;;;16.01;29.16;100488.38;5060516;28;20227;-68
2022/03/23 11:30:57;;;;;;;2.00;1.90;;;;;;;15.89;32.21;100484.47;5071002;28;20208;-69
2022/03/23 11:33:26;;;;;;;2.07;1.97;;;;;;;16.00;30.38;100479.75;5070183;28;20202;-68
2022/03/23 11:35:54;;;;;;;2.50;2.30;;;;;;;15.60;29.53;100476.88;5065852;28;20660;-69
2022/03/23 11:38:25;;;;;;;2.77;2.40;;;;;;;15.40;32.28;100467.16;5062588;28;20225;-68
2022/03/23 11:40:54;;;;;;;2.93;2.27;;;;;;;15.84;33.88;100465.69;5058499;28;20223;-68
2022/03/23 11:43:22;;;;;;;2.30;2.20;;;;;;;16.05;33.43;100462.34;5066121;28;20219;-69
2022/03/23 11:45:51;;;;;;;5.10;2.20;;;;;;;16.17;33.13;100442.94;5066196;28;20257;-68
2022/03/23 11:48:30;;;;;;;3.20;2.40;;;;;;;16.29;33.19;100452.84;5068822;28;20212;-69
2022/03/23 11:51:14;;;;;;;3.23;1.97;;;;;;;16.33;32.46;100449.25;5056223;28;20207;-70
2022/03/23 11:53:53;;;;;;;1.73;1.63;;;;;;;16.38;31.63;100452.50;5060229;28;20208;-69
2022/03/23 11:56:24;;;;;;;4.37;2.30;;;;;;;16.50;32.41;100446.88;5065273;28;20203;-68
2022/03/23 11:58:52;;;;;;;2.50;2.40;;;;;;;16.54;31.85;100432.91;5064309;28;20586;-69
2022/03/23 12:01:19;;;;;;;3.73;2.17;;;;;;;16.57;30.05;100440.63;5066205;28;20714;-69